createdAt,value
2023-05-31T00:01:18.296Z,9.03
2023-05-31T00:06:25.330Z,8.97
2023-05-31T00:11:32.499Z,8.90
2023-05-31T00:21:49.502Z,8.78
2023-05-31T00:26:56.563Z,8.72
2023-05-31T00:32:03.915Z,8.65
2023-05-31T00:37:11.118Z,8.60
2023-05-31T00:42:18.580Z,8.56
2023-05-31T00:47:27.023Z,8.50
2023-05-31T00:52:35.349Z,8.45
2023-05-31T00:57:42.930Z,8.39
2023-05-31T01:02:52.182Z,8.33
2023-05-31T01:07:59.598Z,8.27
2023-05-31T01:13:25.548Z,8.23
2023-05-31T01:18:46.024Z,8.18
2023-05-31T01:24:10.895Z,8.14
2023-05-31T01:29:21.906Z,8.10
2023-05-31T01:34:30.164Z,8.07
2023-05-31T01:39:37.260Z,8.04
2023-05-31T01:44:45.678Z,8.02
2023-05-31T01:49:53.212Z,7.99
2023-05-31T01:55:00.300Z,8.00
2023-05-31T02:00:13.132Z,8.08
2023-05-31T02:05:20.546Z,8.14
2023-05-31T02:10:27.477Z,8.22
2023-05-31T02:15:34.367Z,8.23
2023-05-31T02:20:41.458Z,8.33
2023-05-31T02:25:49.947Z,8.37
2023-05-31T02:31:01.403Z,8.40
2023-05-31T02:36:12.531Z,8.43
2023-05-31T02:41:19.344Z,8.47
2023-05-31T02:46:26.393Z,8.48
2023-05-31T02:51:34.715Z,8.51
2023-05-31T02:56:42.319Z,8.46
2023-05-31T03:01:55.330Z,8.45
2023-05-31T03:07:16.590Z,8.41
2023-05-31T03:12:25.044Z,8.40
2023-05-31T03:17:32.898Z,8.39
2023-05-31T03:22:40.462Z,8.38
2023-05-31T03:27:48.638Z,8.39
2023-05-31T03:32:55.991Z,8.41
2023-05-31T03:38:03.205Z,8.46
2023-05-31T03:43:11.344Z,8.50
2023-05-31T03:48:19.671Z,8.57
2023-05-31T03:53:28.749Z,8.67
2023-05-31T03:58:37.643Z,8.79
2023-05-31T04:03:47.982Z,9.00
2023-05-31T04:08:55.132Z,9.22
2023-05-31T04:14:02.051Z,9.43
2023-05-31T04:19:09.487Z,9.66
2023-05-31T04:24:16.568Z,9.94
2023-05-31T04:29:23.726Z,10.20
2023-05-31T04:34:31.996Z,10.46
2023-05-31T04:39:39.661Z,10.71
2023-05-31T04:44:47.474Z,10.96
2023-05-31T04:49:55.550Z,11.18
2023-05-31T04:55:04.161Z,11.43
2023-05-31T05:00:17.060Z,11.70
2023-05-31T05:05:43.376Z,11.97
2023-05-31T05:10:50.676Z,12.17
2023-05-31T05:15:58.149Z,12.42
2023-05-31T05:21:05.814Z,12.64
2023-05-31T05:26:15.225Z,12.85
2023-05-31T05:31:22.395Z,13.08
2023-05-31T05:36:29.806Z,13.28
2023-05-31T05:41:37.264Z,13.45
2023-05-31T05:46:45.283Z,13.66
2023-05-31T05:51:53.274Z,13.98
2023-05-31T05:57:00.577Z,14.28
2023-05-31T06:02:10.206Z,14.49
2023-05-31T06:07:17.459Z,14.71
2023-05-31T06:12:24.565Z,14.92
2023-05-31T06:17:31.713Z,15.14
2023-05-31T06:22:38.822Z,15.30
2023-05-31T06:27:47.532Z,15.48
2023-05-31T06:32:56.556Z,15.67
2023-05-31T06:38:05.730Z,15.81
2023-05-31T06:43:14.538Z,16.00
2023-05-31T06:48:41.538Z,16.25
2023-05-31T06:54:08.888Z,16.51
2023-05-31T06:59:20.066Z,16.76
2023-05-31T07:04:27.228Z,16.87
2023-05-31T07:09:34.707Z,16.97
2023-05-31T07:14:42.910Z,17.27
2023-05-31T07:19:51.392Z,17.49
2023-05-31T07:24:58.331Z,17.66
2023-05-31T07:30:05.518Z,17.85
2023-05-31T07:35:12.933Z,17.92
2023-05-31T07:40:20.240Z,17.99
2023-05-31T07:45:27.518Z,18.12
2023-05-31T07:50:34.693Z,18.21
2023-05-31T07:55:41.661Z,18.31
2023-05-31T08:00:48.854Z,18.40
2023-05-31T08:05:56.393Z,18.64
2023-05-31T08:11:04.066Z,18.93
2023-05-31T08:16:11.093Z,19.08
2023-05-31T08:21:18.530Z,19.14
2023-05-31T08:26:26.849Z,19.18
2023-05-31T08:31:34.088Z,19.33
2023-05-31T08:36:41.510Z,19.51
2023-05-31T08:41:54.849Z,19.58
2023-05-31T08:47:10.271Z,19.66
2023-05-31T08:52:19.618Z,19.73
2023-05-31T08:57:29.393Z,19.89
2023-05-31T09:02:37.285Z,20.01
2023-05-31T09:07:44.656Z,20.13
2023-05-31T09:12:51.556Z,20.27
2023-05-31T09:17:59.416Z,20.33
2023-05-31T09:23:09.839Z,20.40
2023-05-31T09:28:17.168Z,20.70
2023-05-31T09:33:24.606Z,20.92
2023-05-31T09:38:36.523Z,21.04
2023-05-31T09:43:44.476Z,21.17
2023-05-31T09:49:01.436Z,21.33
2023-05-31T09:54:15.909Z,21.54
2023-05-31T09:59:23.917Z,21.76
2023-05-31T10:04:32.718Z,21.98
2023-05-31T10:09:39.675Z,22.03
2023-05-31T10:14:56.481Z,22.16
2023-05-31T10:20:09.266Z,22.27
2023-05-31T10:25:26.497Z,22.19
2023-05-31T10:30:36.453Z,22.20
2023-05-31T10:35:43.488Z,22.20
2023-05-31T10:40:55.395Z,22.41
2023-05-31T10:46:07.119Z,22.73
2023-05-31T10:51:14.327Z,22.76
2023-05-31T10:56:23.846Z,22.94
2023-05-31T11:01:32.873Z,23.30
2023-05-31T11:06:39.980Z,23.49
2023-05-31T11:11:51.313Z,23.54
2023-05-31T11:17:21.610Z,23.25
2023-05-31T11:22:30.174Z,23.31
2023-05-31T11:27:41.944Z,23.74
2023-05-31T11:33:01.596Z,23.95
2023-05-31T11:38:08.287Z,24.11
2023-05-31T11:43:20.422Z,24.27
2023-05-31T11:48:47.260Z,24.44
2023-05-31T11:53:57.996Z,24.96
2023-05-31T11:59:05.001Z,25.62
2023-05-31T12:04:11.965Z,26.39
2023-05-31T12:09:19.179Z,27.17
2023-05-31T12:14:27.324Z,27.92
2023-05-31T12:19:34.856Z,28.79
2023-05-31T12:24:51.662Z,29.41
2023-05-31T12:30:01.861Z,30.30
2023-05-31T12:35:13.644Z,31.04
2023-05-31T12:40:24.240Z,31.50
2023-05-31T12:45:31.756Z,32.29
2023-05-31T12:50:38.948Z,32.87
2023-05-31T12:55:46.454Z,33.23
2023-05-31T13:00:53.665Z,33.81
2023-05-31T13:06:00.837Z,34.02
2023-05-31T13:11:08.055Z,34.47
2023-05-31T13:16:13.478Z,34.78
2023-05-31T13:21:20.579Z,34.62
2023-05-31T13:26:29.046Z,35.31
2023-05-31T13:31:36.264Z,35.77
2023-05-31T13:36:43.303Z,35.43
2023-05-31T13:41:50.724Z,35.71
2023-05-31T13:46:58.125Z,36.03
2023-05-31T13:52:06.718Z,36.29
2023-05-31T13:57:13.786Z,36.09
2023-05-31T14:02:24.081Z,36.57
2023-05-31T14:07:31.752Z,36.83
2023-05-31T14:12:38.809Z,36.91
2023-05-31T14:17:46.610Z,37.07
2023-05-31T14:22:53.636Z,37.00
2023-05-31T14:28:00.630Z,36.97
2023-05-31T14:33:07.640Z,36.86
2023-05-31T14:38:21.875Z,37.20
2023-05-31T14:43:44.741Z,36.85
2023-05-31T14:48:52.361Z,36.85
2023-05-31T14:53:59.341Z,36.89
2023-05-31T14:59:06.397Z,36.92
2023-05-31T15:04:14.793Z,36.97
2023-05-31T15:09:22.114Z,36.78
2023-05-31T15:14:29.192Z,37.07
2023-05-31T15:19:37.003Z,37.38
2023-05-31T15:24:44.182Z,37.55
2023-05-31T15:29:51.434Z,37.57
2023-05-31T15:34:58.380Z,37.01
2023-05-31T15:40:05.730Z,36.47
2023-05-31T15:45:13.437Z,36.28
2023-05-31T15:50:20.708Z,35.78
2023-05-31T15:55:30.145Z,35.42
2023-05-31T16:00:37.030Z,34.91
2023-05-31T16:05:44.168Z,34.67
2023-05-31T16:10:51.129Z,34.72
2023-05-31T16:15:56.487Z,34.14
2023-05-31T16:21:03.912Z,33.36
2023-05-31T16:26:11.205Z,32.92
2023-05-31T16:31:21.484Z,32.53
2023-05-31T16:36:28.998Z,32.69
2023-05-31T16:41:36.236Z,32.98
2023-05-31T16:46:43.331Z,33.31
2023-05-31T16:51:50.271Z,33.62
2023-05-31T16:56:57.231Z,33.57
2023-05-31T17:02:04.196Z,33.57
2023-05-31T17:07:11.498Z,33.77
2023-05-31T17:12:18.679Z,33.72
2023-05-31T17:17:25.581Z,33.66
2023-05-31T17:22:32.545Z,33.63
2023-05-31T17:27:39.449Z,33.28
2023-05-31T17:32:47.272Z,33.04
2023-05-31T17:37:54.950Z,32.68
2023-05-31T17:43:01.899Z,31.57
2023-05-31T17:48:09.422Z,30.49
2023-05-31T17:53:16.734Z,29.50
2023-05-31T17:58:28.420Z,28.61
2023-05-31T18:03:35.421Z,27.75
2023-05-31T18:08:42.622Z,27.02
2023-05-31T18:13:49.956Z,26.46
2023-05-31T18:18:57.073Z,25.85
2023-05-31T18:24:04.479Z,25.22
2023-05-31T18:29:11.501Z,24.61
2023-05-31T18:34:18.793Z,24.25
2023-05-31T18:39:25.751Z,23.71
2023-05-31T18:44:33.054Z,23.17
2023-05-31T18:49:40.023Z,22.56
2023-05-31T18:54:47.283Z,21.96
2023-05-31T18:59:54.266Z,21.41
2023-05-31T19:05:02.269Z,21.00
2023-05-31T19:10:10.837Z,20.44
2023-05-31T19:15:17.940Z,20.04
2023-05-31T19:20:25.007Z,19.64
2023-05-31T19:25:32.225Z,19.31
2023-05-31T19:30:39.841Z,18.94
2023-05-31T19:35:47.147Z,18.67
2023-05-31T19:40:54.173Z,18.34
2023-05-31T19:46:02.208Z,18.01
2023-05-31T19:51:09.465Z,17.74
2023-05-31T19:56:16.600Z,17.48
2023-05-31T20:01:24.067Z,17.18
2023-05-31T20:06:31.269Z,16.92
2023-05-31T20:11:40.690Z,16.66
2023-05-31T20:16:47.810Z,16.40
2023-05-31T20:21:56.077Z,16.17
2023-05-31T20:27:03.242Z,15.89
2023-05-31T20:32:11.600Z,15.68
2023-05-31T20:37:19.999Z,15.47
2023-05-31T20:42:27.159Z,15.24
2023-05-31T20:47:35.230Z,14.97
2023-05-31T20:52:42.441Z,14.76
2023-05-31T20:57:49.914Z,14.62
2023-05-31T21:02:58.661Z,14.48
2023-05-31T21:08:06.069Z,14.34
2023-05-31T21:13:13.177Z,14.19
2023-05-31T21:18:20.326Z,13.99
2023-05-31T21:23:27.318Z,13.82
2023-05-31T21:28:34.422Z,13.69
2023-05-31T21:33:41.525Z,13.53
2023-05-31T21:38:48.942Z,13.36
2023-05-31T21:43:57.730Z,13.23
2023-05-31T21:49:04.748Z,13.11
2023-05-31T21:54:11.864Z,12.97
2023-05-31T21:59:18.917Z,12.84
2023-05-31T22:04:26.045Z,12.72
2023-05-31T22:09:33.203Z,12.62
2023-05-31T22:14:41.155Z,12.51
2023-05-31T22:19:48.373Z,12.39
2023-05-31T22:25:01.608Z,12.26
2023-05-31T22:30:20.117Z,12.15
2023-05-31T22:35:27.929Z,12.07
2023-05-31T22:40:35.018Z,11.98
2023-05-31T22:45:42.301Z,11.86
2023-05-31T22:50:50.449Z,11.78
2023-05-31T22:55:57.514Z,11.66
2023-05-31T23:01:04.834Z,11.57
2023-05-31T23:06:13.892Z,11.49
2023-05-31T23:11:23.108Z,11.41
2023-05-31T23:16:30.540Z,11.33
2023-05-31T23:21:39.207Z,11.24
2023-05-31T23:26:47.911Z,11.16
2023-05-31T23:31:54.969Z,11.09
2023-05-31T23:37:02.039Z,10.99
2023-05-31T23:42:11.212Z,10.90
2023-05-31T23:47:18.222Z,10.81
2023-05-31T23:52:25.370Z,10.74
2023-05-31T23:57:32.552Z,10.68
